createdAt,value
2019-03-15T00:03:44.528Z,13.73
2019-03-15T00:07:46.741Z,13.60
2019-03-15T00:11:49.000Z,14.37
2019-03-15T00:15:51.167Z,14.83
2019-03-15T00:19:53.434Z,15.07
2019-03-15T00:23:55.617Z,13.97
2019-03-15T00:27:57.916Z,14.03
2019-03-15T00:32:00.355Z,14.13
2019-03-15T00:36:02.638Z,13.43
2019-03-15T00:40:05.120Z,14.33
2019-03-15T00:44:07.420Z,14.67
2019-03-15T00:48:09.613Z,15.70
2019-03-15T00:52:11.898Z,14.77
2019-03-15T00:56:14.116Z,16.67
2019-03-15T01:00:16.590Z,14.77
2019-03-15T01:04:20.274Z,15.60
2019-03-15T01:08:22.543Z,16.03
2019-03-15T01:12:24.723Z,15.97
2019-03-15T01:16:26.985Z,15.93
2019-03-15T01:20:29.198Z,15.23
2019-03-15T01:24:31.453Z,15.33
2019-03-15T01:28:33.666Z,15.93
2019-03-15T01:32:36.219Z,15.13
2019-03-15T01:36:38.485Z,14.73
2019-03-15T01:40:40.731Z,14.40
2019-03-15T01:44:42.903Z,15.73
2019-03-15T01:48:45.189Z,14.13
2019-03-15T01:52:47.404Z,14.37
2019-03-15T01:56:49.703Z,14.77
2019-03-15T02:00:51.969Z,14.40
2019-03-15T02:04:54.655Z,14.33
2019-03-15T02:08:56.871Z,14.07
2019-03-15T02:12:59.169Z,13.53
2019-03-15T02:17:01.369Z,14.17
2019-03-15T02:21:03.658Z,15.23
2019-03-15T02:25:06.462Z,14.67
2019-03-15T02:29:08.734Z,14.63
2019-03-15T02:33:10.941Z,14.83
2019-03-15T02:37:13.457Z,15.00
2019-03-15T02:41:15.635Z,14.87
2019-03-15T02:45:17.929Z,15.00
2019-03-15T02:49:20.468Z,14.83
2019-03-15T02:53:23.043Z,15.30
2019-03-15T02:57:27.419Z,13.80
2019-03-15T03:01:29.716Z,13.93
2019-03-15T03:05:32.168Z,14.53
2019-03-15T03:09:34.602Z,14.27
2019-03-15T03:13:37.335Z,13.30
2019-03-15T03:17:40.343Z,14.57
2019-03-15T03:21:43.756Z,13.60
2019-03-15T03:25:46.046Z,15.17
2019-03-15T03:29:48.315Z,15.37
2019-03-15T03:33:50.598Z,14.40
2019-03-15T03:37:52.813Z,15.07
2019-03-15T03:41:56.341Z,13.50
2019-03-15T03:45:58.580Z,15.87
2019-03-15T03:50:00.926Z,14.73
2019-03-15T03:54:04.264Z,15.63
2019-03-15T03:58:06.796Z,14.37
2019-03-15T04:02:08.986Z,14.40
2019-03-15T04:06:12.119Z,13.20
2019-03-15T04:10:14.515Z,13.20
2019-03-15T04:14:17.030Z,10.50
2019-03-15T04:18:19.193Z,8.73
2019-03-15T04:22:21.454Z,8.20
2019-03-15T04:26:23.682Z,7.90
2019-03-15T04:30:25.918Z,7.47
2019-03-15T04:34:28.596Z,7.57
2019-03-15T04:38:30.938Z,7.40
2019-03-15T04:42:33.125Z,7.87
2019-03-15T04:46:35.431Z,7.73
2019-03-15T04:50:37.590Z,7.43
2019-03-15T04:54:39.908Z,7.17
2019-03-15T04:58:42.290Z,5.93
2019-03-15T05:02:47.589Z,5.33
2019-03-15T05:06:54.261Z,5.17
2019-03-15T05:10:58.700Z,5.53
2019-03-15T05:15:01.256Z,4.77
2019-03-15T05:19:04.702Z,4.90
2019-03-15T05:23:06.981Z,3.67
2019-03-15T05:27:09.225Z,3.70
2019-03-15T05:31:11.447Z,3.37
2019-03-15T05:35:13.836Z,2.93
2019-03-15T05:39:17.129Z,2.70
2019-03-15T05:43:19.363Z,2.27
2019-03-15T05:47:21.602Z,2.50
2019-03-15T05:51:23.893Z,2.20
2019-03-15T05:55:26.203Z,1.83
2019-03-15T05:59:28.451Z,1.80
2019-03-15T06:03:32.933Z,1.67
2019-03-15T06:07:36.783Z,2.13
2019-03-15T06:11:39.388Z,2.07
2019-03-15T06:15:41.616Z,1.83
2019-03-15T06:19:43.977Z,1.50
2019-03-15T06:23:46.255Z,1.70
2019-03-15T06:27:48.444Z,1.50
2019-03-15T06:31:50.707Z,1.97
2019-03-15T06:35:52.899Z,2.80
2019-03-15T06:39:55.295Z,3.37
2019-03-15T06:43:57.552Z,3.20
2019-03-15T06:48:00.888Z,4.47
2019-03-15T06:52:03.268Z,3.97
2019-03-15T06:56:06.766Z,4.87
2019-03-15T07:00:09.568Z,3.80
2019-03-15T07:04:11.809Z,4.30
2019-03-15T07:08:13.980Z,3.67
2019-03-15T07:12:16.273Z,3.17
2019-03-15T07:16:20.138Z,3.13
2019-03-15T07:20:22.374Z,2.73
2019-03-15T07:24:25.740Z,2.67
2019-03-15T07:28:28.159Z,2.53
2019-03-15T07:32:31.070Z,2.37
2019-03-15T07:36:33.484Z,1.77
2019-03-15T07:40:35.674Z,2.33
2019-03-15T07:44:37.910Z,2.60
2019-03-15T07:48:40.097Z,2.57
2019-03-15T07:52:42.425Z,3.13
2019-03-15T07:56:44.603Z,3.00
2019-03-15T08:00:46.866Z,2.77
2019-03-15T08:04:49.060Z,3.20
2019-03-15T08:08:51.306Z,2.73
2019-03-15T08:12:53.480Z,3.07
2019-03-15T08:16:55.706Z,2.23
2019-03-15T08:20:58.420Z,2.23
2019-03-15T08:25:00.705Z,2.37
2019-03-15T08:29:02.955Z,2.23
2019-03-15T08:33:10.469Z,2.33
2019-03-15T08:37:09.106Z,1.50
2019-03-15T08:41:11.373Z,1.47
2019-03-15T08:45:14.459Z,0.87
2019-03-15T08:49:16.772Z,1.40
2019-03-15T08:53:18.926Z,1.37
2019-03-15T08:57:21.216Z,1.67
2019-03-15T09:01:24.028Z,1.90
2019-03-15T09:05:26.511Z,1.80
2019-03-15T09:09:28.883Z,2.53
2019-03-15T09:13:31.301Z,1.90
2019-03-15T09:17:33.655Z,1.57
2019-03-15T09:21:36.343Z,1.53
2019-03-15T09:25:38.618Z,1.63
2019-03-15T09:29:42.571Z,1.63
2019-03-15T09:33:46.208Z,1.37
2019-03-15T09:37:51.708Z,1.20
2019-03-15T09:41:57.263Z,1.33
2019-03-15T09:45:59.496Z,1.90
2019-03-15T09:50:01.682Z,1.73
2019-03-15T09:54:04.032Z,1.80
2019-03-15T09:58:06.237Z,1.63
2019-03-15T10:02:08.661Z,1.60
2019-03-15T10:06:15.697Z,1.73
2019-03-15T10:10:18.509Z,2.07
2019-03-15T10:14:19.498Z,2.13
2019-03-15T10:18:21.774Z,1.73
2019-03-15T10:22:23.953Z,1.77
2019-03-15T10:26:26.404Z,1.50
2019-03-15T10:30:28.595Z,1.83
2019-03-15T10:34:30.828Z,1.90
2019-03-15T10:38:33.011Z,1.70
2019-03-15T10:42:35.275Z,1.70
2019-03-15T10:46:37.487Z,1.87
2019-03-15T10:50:39.856Z,1.77
2019-03-15T10:54:42.049Z,1.57
2019-03-15T10:58:44.330Z,1.50
2019-03-15T11:02:46.519Z,2.07
2019-03-15T11:06:48.769Z,1.73
2019-03-15T11:10:50.961Z,1.93
2019-03-15T11:14:53.393Z,2.07
2019-03-15T11:18:55.611Z,2.47
2019-03-15T11:22:58.077Z,2.30
2019-03-15T11:27:00.471Z,2.60
2019-03-15T11:31:02.724Z,3.20
2019-03-15T11:35:05.246Z,3.60
2019-03-15T11:39:09.467Z,2.97
2019-03-15T11:43:11.655Z,3.47
2019-03-15T11:47:14.024Z,3.37
2019-03-15T11:51:16.164Z,3.47
2019-03-15T11:55:19.518Z,3.73
2019-03-15T11:59:21.715Z,3.90
2019-03-15T12:03:24.031Z,5.17
2019-03-15T12:07:26.256Z,4.93
2019-03-15T12:11:28.523Z,3.90
2019-03-15T12:15:30.875Z,4.50
2019-03-15T12:19:33.175Z,5.57
2019-03-15T12:23:35.370Z,4.93
2019-03-15T12:27:37.762Z,4.33
2019-03-15T12:31:40.093Z,4.80
2019-03-15T12:35:44.552Z,5.50
2019-03-15T12:39:46.868Z,5.80
2019-03-15T12:43:49.295Z,6.00
2019-03-15T12:47:51.631Z,5.37
2019-03-15T12:51:54.103Z,4.67
2019-03-15T12:55:56.302Z,5.17
2019-03-15T12:59:58.659Z,4.27
2019-03-15T13:04:00.843Z,3.90
2019-03-15T13:08:03.423Z,4.43
2019-03-15T13:12:05.615Z,4.13
2019-03-15T13:16:07.874Z,4.00
2019-03-15T13:20:11.806Z,4.20
2019-03-15T13:24:14.074Z,3.80
2019-03-15T13:28:16.254Z,4.20
2019-03-15T13:32:20.406Z,4.10
2019-03-15T13:36:22.676Z,4.50
2019-03-15T13:40:24.981Z,4.47
2019-03-15T13:44:27.166Z,4.50
2019-03-15T13:48:30.523Z,4.83
2019-03-15T13:52:32.705Z,5.23
2019-03-15T13:56:35.235Z,4.90
2019-03-15T14:00:37.468Z,4.20
2019-03-15T14:04:39.857Z,4.27
2019-03-15T14:08:42.034Z,4.27
2019-03-15T14:12:45.255Z,4.03
2019-03-15T14:16:47.456Z,5.10
2019-03-15T14:20:49.946Z,5.70
2019-03-15T14:24:52.140Z,6.17
2019-03-15T14:28:58.399Z,5.37
2019-03-15T14:33:01.945Z,5.77
2019-03-15T14:37:05.316Z,6.30
2019-03-15T14:41:08.091Z,8.30
2019-03-15T14:45:10.932Z,6.77
2019-03-15T14:49:13.210Z,5.90
2019-03-15T14:53:15.908Z,6.33
2019-03-15T14:57:18.086Z,6.87
2019-03-15T15:01:20.388Z,6.97
2019-03-15T15:05:22.601Z,5.90
2019-03-15T15:09:25.054Z,5.90
2019-03-15T15:13:27.292Z,5.97
2019-03-15T15:17:29.619Z,5.17
2019-03-15T15:21:31.809Z,4.40
2019-03-15T15:25:34.088Z,6.53
2019-03-15T15:29:36.634Z,5.80
2019-03-15T15:33:40.524Z,6.73
2019-03-15T15:37:42.921Z,6.90
2019-03-15T15:41:45.218Z,5.37
2019-03-15T15:45:47.573Z,4.93
2019-03-15T15:49:49.866Z,4.73
2019-03-15T15:53:52.098Z,5.43
2019-03-15T15:57:54.361Z,6.87
2019-03-15T16:01:56.568Z,5.60
2019-03-15T16:05:59.033Z,6.03
2019-03-15T16:10:01.223Z,7.10
2019-03-15T16:14:03.802Z,6.27
2019-03-15T16:18:06.003Z,6.20
2019-03-15T16:22:08.348Z,8.80
2019-03-15T16:26:10.578Z,7.93
2019-03-15T16:30:13.857Z,8.97
2019-03-15T16:34:16.047Z,9.93
2019-03-15T16:38:18.333Z,10.30
2019-03-15T16:42:20.771Z,10.20
2019-03-15T16:46:23.082Z,10.80
2019-03-15T16:50:25.339Z,11.97
2019-03-15T16:54:27.645Z,11.20
2019-03-15T16:58:29.839Z,14.60
2019-03-15T17:02:32.128Z,12.67
2019-03-15T17:06:34.355Z,10.80
2019-03-15T17:10:36.650Z,9.13
2019-03-15T17:14:39.076Z,9.50
2019-03-15T17:18:41.618Z,8.10
2019-03-15T17:22:44.851Z,10.47
2019-03-15T17:26:47.102Z,8.00
2019-03-15T17:30:49.386Z,9.40
2019-03-15T17:34:51.795Z,8.90
2019-03-15T17:38:54.067Z,8.57
2019-03-15T17:42:56.485Z,7.43
2019-03-15T17:47:00.020Z,8.23
2019-03-15T17:51:02.397Z,8.13
2019-03-15T17:55:04.704Z,9.87
2019-03-15T17:59:12.509Z,10.47
2019-03-15T18:03:20.649Z,12.17
2019-03-15T18:07:15.206Z,13.63
2019-03-15T18:11:17.415Z,14.53
2019-03-15T18:15:19.874Z,14.60
2019-03-15T18:19:22.133Z,15.87
2019-03-15T18:23:24.702Z,15.40
2019-03-15T18:27:27.019Z,17.50
2019-03-15T18:31:29.775Z,20.83
2019-03-15T18:35:34.034Z,16.77
2019-03-15T18:39:35.969Z,18.57
2019-03-15T18:43:38.149Z,16.40
2019-03-15T18:47:40.828Z,18.30
2019-03-15T18:51:43.128Z,17.17
2019-03-15T18:55:45.406Z,18.80
2019-03-15T18:59:47.583Z,17.47
2019-03-15T19:03:49.860Z,16.97
2019-03-15T19:07:52.104Z,16.60
2019-03-15T19:11:54.375Z,16.33
2019-03-15T19:15:56.576Z,14.77
2019-03-15T19:19:58.843Z,18.33
2019-03-15T19:24:01.028Z,15.80
2019-03-15T19:28:03.522Z,14.73
2019-03-15T19:32:06.949Z,16.27
2019-03-15T19:36:09.194Z,17.03
2019-03-15T19:40:12.616Z,17.00
2019-03-15T19:44:14.914Z,14.10
2019-03-15T19:48:17.125Z,15.90
2019-03-15T19:52:19.699Z,14.27
2019-03-15T19:56:21.882Z,15.00
2019-03-15T20:00:24.295Z,12.90
2019-03-15T20:04:26.581Z,15.83
2019-03-15T20:08:28.875Z,12.83
2019-03-15T20:12:31.113Z,15.43
2019-03-15T20:16:33.407Z,16.50
2019-03-15T20:20:35.622Z,14.80
2019-03-15T20:24:37.857Z,15.73
2019-03-15T20:28:40.088Z,14.07
2019-03-15T20:32:43.921Z,16.27
2019-03-15T20:36:46.159Z,15.60
2019-03-15T20:40:48.443Z,15.40
2019-03-15T20:44:51.656Z,13.17
2019-03-15T20:48:53.945Z,14.10
2019-03-15T20:53:07.611Z,14.57
2019-03-15T20:57:00.186Z,14.57
2019-03-15T21:01:02.398Z,12.57
2019-03-15T21:05:07.861Z,13.93
2019-03-15T21:09:09.599Z,14.30
2019-03-15T21:13:11.880Z,14.47
2019-03-15T21:17:14.329Z,13.90
2019-03-15T21:21:16.645Z,13.07
2019-03-15T21:25:18.846Z,14.90
2019-03-15T21:29:21.180Z,11.40
2019-03-15T21:33:23.654Z,13.13
2019-03-15T21:37:25.946Z,13.20
2019-03-15T21:41:28.194Z,13.60
2019-03-15T21:45:30.466Z,13.53
2019-03-15T21:49:35.218Z,13.03
2019-03-15T21:53:36.598Z,13.50
2019-03-15T21:57:38.883Z,12.67
2019-03-15T22:01:41.159Z,13.80
2019-03-15T22:05:43.453Z,14.97
2019-03-15T22:09:45.722Z,14.87
2019-03-15T22:13:47.923Z,13.63
2019-03-15T22:17:50.366Z,13.47
2019-03-15T22:21:52.746Z,12.57
2019-03-15T22:25:55.010Z,13.03
2019-03-15T22:29:57.287Z,13.67
2019-03-15T22:33:59.785Z,13.70
2019-03-15T22:38:01.994Z,13.57
2019-03-15T22:42:04.294Z,13.17
2019-03-15T22:46:06.512Z,13.10
2019-03-15T22:50:08.745Z,12.80
2019-03-15T22:54:10.936Z,13.00
2019-03-15T22:58:13.198Z,9.73
2019-03-15T23:02:15.405Z,11.67
2019-03-15T23:06:17.704Z,12.70
2019-03-15T23:10:19.910Z,12.23
2019-03-15T23:14:22.178Z,10.17
2019-03-15T23:18:24.380Z,10.17
2019-03-15T23:22:26.778Z,10.43
2019-03-15T23:26:31.550Z,10.80
2019-03-15T23:30:34.014Z,11.33
2019-03-15T23:34:36.670Z,10.37
2019-03-15T23:38:39.197Z,10.40
2019-03-15T23:42:41.684Z,9.10
2019-03-15T23:46:44.299Z,11.20
2019-03-15T23:50:46.473Z,10.47
2019-03-15T23:54:48.933Z,11.23
2019-03-15T23:58:51.343Z,9.63
